sensor_id;sensor_type;location;lat;lon;timestamp;P1;durP1;ratioP1;P2;durP2;ratioP2
25263;SDS011;13211;51.796;5.808;2022-07-23T00:03:39;2.88;;;1.55;;
25263;SDS011;13211;51.796;5.808;2022-07-23T00:06:07;3.90;;;1.88;;
25263;SDS011;13211;51.796;5.808;2022-07-23T00:08:35;3.65;;;1.73;;
25263;SDS011;13211;51.796;5.808;2022-07-23T00:11:03;6.57;;;1.88;;
25263;SDS011;13211;51.796;5.808;2022-07-23T00:13:31;4.55;;;1.63;;
25263;SDS011;13211;51.796;5.808;2022-07-23T00:15:59;3.78;;;1.70;;
25263;SDS011;13211;51.796;5.808;2022-07-23T00:18:27;10.27;;;2.20;;
25263;SDS011;13211;51.796;5.808;2022-07-23T00:20:56;3.42;;;1.83;;
25263;SDS011;13211;51.796;5.808;2022-07-23T00:23:24;6.68;;;1.77;;
25263;SDS011;13211;51.796;5.808;2022-07-23T00:25:53;6.28;;;1.67;;
25263;SDS011;13211;51.796;5.808;2022-07-23T00:28:23;4.43;;;1.92;;
25263;SDS011;13211;51.796;5.808;2022-07-23T00:30:51;4.82;;;2.00;;
25263;SDS011;13211;51.796;5.808;2022-07-23T00:33:19;5.10;;;1.45;;
25263;SDS011;13211;51.796;5.808;2022-07-23T00:35:49;5.25;;;2.33;;
25263;SDS011;13211;51.796;5.808;2022-07-23T00:38:17;5.45;;;1.88;;
25263;SDS011;13211;51.796;5.808;2022-07-23T00:40:47;4.55;;;1.77;;
25263;SDS011;13211;51.796;5.808;2022-07-23T00:43:16;3.67;;;1.90;;
25263;SDS011;13211;51.796;5.808;2022-07-23T00:45:43;3.88;;;2.10;;
25263;SDS011;13211;51.796;5.808;2022-07-23T00:48:15;3.78;;;2.03;;
25263;SDS011;13211;51.796;5.808;2022-07-23T00:50:45;3.30;;;1.88;;
25263;SDS011;13211;51.796;5.808;2022-07-23T00:53:15;4.75;;;2.28;;
25263;SDS011;13211;51.796;5.808;2022-07-23T00:55:43;4.85;;;2.17;;
25263;SDS011;13211;51.796;5.808;2022-07-23T00:58:12;3.55;;;1.92;;
25263;SDS011;13211;51.796;5.808;2022-07-23T01:00:44;2.75;;;1.90;;
25263;SDS011;13211;51.796;5.808;2022-07-23T01:03:12;7.70;;;2.42;;
25263;SDS011;13211;51.796;5.808;2022-07-23T01:05:42;7.07;;;2.22;;
25263;SDS011;13211;51.796;5.808;2022-07-23T01:08:12;9.13;;;2.38;;
25263;SDS011;13211;51.796;5.808;2022-07-23T01:10:43;9.00;;;2.88;;
25263;SDS011;13211;51.796;5.808;2022-07-23T01:13:13;3.17;;;2.30;;
25263;SDS011;13211;51.796;5.808;2022-07-23T01:15:42;7.90;;;2.43;;
25263;SDS011;13211;51.796;5.808;2022-07-23T01:18:11;3.90;;;1.92;;
25263;SDS011;13211;51.796;5.808;2022-07-23T01:20:41;4.30;;;2.58;;
25263;SDS011;13211;51.796;5.808;2022-07-23T01:23:08;5.53;;;2.42;;
25263;SDS011;13211;51.796;5.808;2022-07-23T01:25:47;7.53;;;2.42;;
25263;SDS011;13211;51.796;5.808;2022-07-23T01:28:16;6.40;;;2.50;;
25263;SDS011;13211;51.796;5.808;2022-07-23T01:30:47;4.10;;;2.30;;
25263;SDS011;13211;51.796;5.808;2022-07-23T01:33:15;5.50;;;2.38;;
25263;SDS011;13211;51.796;5.808;2022-07-23T01:35:43;3.17;;;2.15;;
25263;SDS011;13211;51.796;5.808;2022-07-23T01:38:17;5.38;;;2.38;;
25263;SDS011;13211;51.796;5.808;2022-07-23T01:40:45;4.75;;;2.35;;
25263;SDS011;13211;51.796;5.808;2022-07-23T01:43:21;7.30;;;2.50;;
25263;SDS011;13211;51.796;5.808;2022-07-23T01:45:52;4.22;;;2.40;;
25263;SDS011;13211;51.796;5.808;2022-07-23T01:48:21;5.82;;;2.40;;
25263;SDS011;13211;51.796;5.808;2022-07-23T01:54:03;4.72;;;2.28;;
25263;SDS011;13211;51.796;5.808;2022-07-23T01:56:37;6.97;;;2.50;;
25263;SDS011;13211;51.796;5.808;2022-07-23T01:59:05;6.65;;;2.50;;
25263;SDS011;13211;51.796;5.808;2022-07-23T02:01:33;3.10;;;2.30;;
25263;SDS011;13211;51.796;5.808;2022-07-23T02:04:03;3.42;;;2.67;;
25263;SDS011;13211;51.796;5.808;2022-07-23T02:06:31;5.88;;;2.30;;
25263;SDS011;13211;51.796;5.808;2022-07-23T02:08:58;5.85;;;2.50;;
25263;SDS011;13211;51.796;5.808;2022-07-23T02:11:29;7.85;;;2.35;;
25263;SDS011;13211;51.796;5.808;2022-07-23T02:13:57;4.75;;;2.20;;
25263;SDS011;13211;51.796;5.808;2022-07-23T02:16:24;3.88;;;2.60;;
25263;SDS011;13211;51.796;5.808;2022-07-23T02:18:52;5.35;;;2.67;;
25263;SDS011;13211;51.796;5.808;2022-07-23T02:21:21;4.63;;;2.63;;
25263;SDS011;13211;51.796;5.808;2022-07-23T02:23:48;6.50;;;2.58;;
25263;SDS011;13211;51.796;5.808;2022-07-23T02:26:16;7.57;;;2.65;;
25263;SDS011;13211;51.796;5.808;2022-07-23T02:28:49;6.50;;;2.75;;
25263;SDS011;13211;51.796;5.808;2022-07-23T02:31:23;6.50;;;2.42;;
25263;SDS011;13211;51.796;5.808;2022-07-23T02:33:50;6.07;;;2.72;;
25263;SDS011;13211;51.796;5.808;2022-07-23T02:36:17;3.47;;;2.50;;
25263;SDS011;13211;51.796;5.808;2022-07-23T02:38:48;4.97;;;2.42;;
25263;SDS011;13211;51.796;5.808;2022-07-23T02:41:16;14.20;;;3.03;;
25263;SDS011;13211;51.796;5.808;2022-07-23T02:43:45;11.48;;;3.22;;
25263;SDS011;13211;51.796;5.808;2022-07-23T02:46:15;6.90;;;3.45;;
25263;SDS011;13211;51.796;5.808;2022-07-23T02:48:45;7.28;;;3.10;;
25263;SDS011;13211;51.796;5.808;2022-07-23T02:51:13;12.77;;;3.10;;
25263;SDS011;13211;51.796;5.808;2022-07-23T02:53:50;7.78;;;3.63;;
25263;SDS011;13211;51.796;5.808;2022-07-23T02:56:19;5.47;;;2.97;;
25263;SDS011;13211;51.796;5.808;2022-07-23T02:58:47;7.55;;;2.80;;
25263;SDS011;13211;51.796;5.808;2022-07-23T03:01:15;6.93;;;2.88;;
25263;SDS011;13211;51.796;5.808;2022-07-23T03:03:49;8.82;;;2.60;;
25263;SDS011;13211;51.796;5.808;2022-07-23T03:06:18;5.13;;;3.25;;
25263;SDS011;13211;51.796;5.808;2022-07-23T03:08:47;4.45;;;3.30;;
25263;SDS011;13211;51.796;5.808;2022-07-23T03:11:16;5.50;;;3.25;;
25263;SDS011;13211;51.796;5.808;2022-07-23T03:13:47;5.07;;;2.88;;
25263;SDS011;13211;51.796;5.808;2022-07-23T03:16:15;7.03;;;3.45;;
25263;SDS011;13211;51.796;5.808;2022-07-23T03:18:43;5.75;;;3.47;;
25263;SDS011;13211;51.796;5.808;2022-07-23T03:21:16;5.55;;;3.28;;
25263;SDS011;13211;51.796;5.808;2022-07-23T03:23:45;6.38;;;3.40;;
25263;SDS011;13211;51.796;5.808;2022-07-23T03:26:12;6.85;;;3.80;;
25263;SDS011;13211;51.796;5.808;2022-07-23T03:28:41;8.07;;;3.80;;
25263;SDS011;13211;51.796;5.808;2022-07-23T03:31:13;6.72;;;3.72;;
25263;SDS011;13211;51.796;5.808;2022-07-23T03:33:43;6.10;;;4.10;;
25263;SDS011;13211;51.796;5.808;2022-07-23T03:36:16;10.82;;;4.13;;
25263;SDS011;13211;51.796;5.808;2022-07-23T03:38:47;5.43;;;3.72;;
25263;SDS011;13211;51.796;5.808;2022-07-23T03:41:15;5.97;;;3.70;;
25263;SDS011;13211;51.796;5.808;2022-07-23T03:43:45;11.77;;;4.30;;
25263;SDS011;13211;51.796;5.808;2022-07-23T03:46:13;5.28;;;3.30;;
25263;SDS011;13211;51.796;5.808;2022-07-23T03:48:43;5.37;;;3.73;;
25263;SDS011;13211;51.796;5.808;2022-07-23T03:51:14;5.90;;;3.30;;
25263;SDS011;13211;51.796;5.808;2022-07-23T03:53:45;10.43;;;3.75;;
25263;SDS011;13211;51.796;5.808;2022-07-23T03:56:13;11.38;;;3.83;;
25263;SDS011;13211;51.796;5.808;2022-07-23T03:58:43;5.63;;;4.28;;
25263;SDS011;13211;51.796;5.808;2022-07-23T04:01:10;8.23;;;4.22;;
25263;SDS011;13211;51.796;5.808;2022-07-23T04:03:39;6.80;;;4.30;;
25263;SDS011;13211;51.796;5.808;2022-07-23T04:06:06;6.00;;;4.30;;
25263;SDS011;13211;51.796;5.808;2022-07-23T04:08:35;8.35;;;4.28;;
25263;SDS011;13211;51.796;5.808;2022-07-23T04:11:03;10.00;;;5.10;;
25263;SDS011;13211;51.796;5.808;2022-07-23T04:13:31;6.93;;;4.28;;
25263;SDS011;13211;51.796;5.808;2022-07-23T04:16:02;6.95;;;4.22;;
25263;SDS011;13211;51.796;5.808;2022-07-23T04:18:31;11.55;;;4.90;;
25263;SDS011;13211;51.796;5.808;2022-07-23T04:21:06;7.90;;;3.92;;
25263;SDS011;13211;51.796;5.808;2022-07-23T04:23:35;9.88;;;4.57;;
25263;SDS011;13211;51.796;5.808;2022-07-23T04:26:03;8.80;;;4.80;;
25263;SDS011;13211;51.796;5.808;2022-07-23T04:28:34;14.80;;;5.30;;
25263;SDS011;13211;51.796;5.808;2022-07-23T04:31:03;15.30;;;5.65;;
25263;SDS011;13211;51.796;5.808;2022-07-23T04:33:31;9.68;;;5.00;;
25263;SDS011;13211;51.796;5.808;2022-07-23T04:36:06;10.25;;;5.00;;
25263;SDS011;13211;51.796;5.808;2022-07-23T04:38:34;8.90;;;4.55;;
25263;SDS011;13211;51.796;5.808;2022-07-23T04:41:03;10.07;;;5.03;;
25263;SDS011;13211;51.796;5.808;2022-07-23T04:43:31;7.80;;;5.30;;
25263;SDS011;13211;51.796;5.808;2022-07-23T04:45:59;10.57;;;5.00;;
25263;SDS011;13211;51.796;5.808;2022-07-23T04:48:29;6.63;;;4.68;;
25263;SDS011;13211;51.796;5.808;2022-07-23T04:51:08;9.93;;;5.50;;
25263;SDS011;13211;51.796;5.808;2022-07-23T04:53:36;12.18;;;5.43;;
25263;SDS011;13211;51.796;5.808;2022-07-23T04:56:05;11.30;;;5.50;;
25263;SDS011;13211;51.796;5.808;2022-07-23T04:58:33;10.18;;;5.50;;
25263;SDS011;13211;51.796;5.808;2022-07-23T05:01:01;9.50;;;5.63;;
25263;SDS011;13211;51.796;5.808;2022-07-23T05:03:32;9.30;;;5.97;;
25263;SDS011;13211;51.796;5.808;2022-07-23T05:05:59;10.02;;;5.75;;
25263;SDS011;13211;51.796;5.808;2022-07-23T05:08:33;10.07;;;6.18;;
25263;SDS011;13211;51.796;5.808;2022-07-23T05:11:01;11.13;;;5.50;;
25263;SDS011;13211;51.796;5.808;2022-07-23T05:13:29;12.07;;;6.35;;
25263;SDS011;13211;51.796;5.808;2022-07-23T05:15:58;10.25;;;6.63;;
25263;SDS011;13211;51.796;5.808;2022-07-23T05:18:26;10.20;;;5.85;;
25263;SDS011;13211;51.796;5.808;2022-07-23T05:20:54;13.27;;;6.50;;
25263;SDS011;13211;51.796;5.808;2022-07-23T05:23:22;10.35;;;6.07;;
25263;SDS011;13211;51.796;5.808;2022-07-23T05:25:51;12.02;;;6.03;;
25263;SDS011;13211;51.796;5.808;2022-07-23T05:28:18;8.85;;;6.18;;
25263;SDS011;13211;51.796;5.808;2022-07-23T05:30:50;50.25;;;29.00;;
25263;SDS011;13211;51.796;5.808;2022-07-23T05:33:20;27.60;;;17.10;;
25263;SDS011;13211;51.796;5.808;2022-07-23T05:35:47;16.85;;;9.13;;
25263;SDS011;13211;51.796;5.808;2022-07-23T05:38:36;11.48;;;6.97;;
25263;SDS011;13211;51.796;5.808;2022-07-23T05:41:04;12.27;;;7.90;;
25263;SDS011;13211;51.796;5.808;2022-07-23T05:43:31;11.52;;;7.63;;
25263;SDS011;13211;51.796;5.808;2022-07-23T05:46:06;16.02;;;7.70;;
25263;SDS011;13211;51.796;5.808;2022-07-23T05:48:36;17.50;;;8.07;;
25263;SDS011;13211;51.796;5.808;2022-07-23T05:51:23;11.68;;;7.40;;
25263;SDS011;13211;51.796;5.808;2022-07-23T05:53:52;9.57;;;7.18;;
25263;SDS011;13211;51.796;5.808;2022-07-23T05:56:23;16.27;;;6.93;;
25263;SDS011;13211;51.796;5.808;2022-07-23T05:58:52;15.05;;;7.75;;
25263;SDS011;13211;51.796;5.808;2022-07-23T06:01:20;11.85;;;7.47;;
25263;SDS011;13211;51.796;5.808;2022-07-23T06:04:04;15.10;;;8.10;;
25263;SDS011;13211;51.796;5.808;2022-07-23T06:06:35;12.38;;;7.30;;
25263;SDS011;13211;51.796;5.808;2022-07-23T06:09:06;10.88;;;7.63;;
25263;SDS011;13211;51.796;5.808;2022-07-23T06:11:34;12.15;;;7.07;;
25263;SDS011;13211;51.796;5.808;2022-07-23T06:14:02;17.92;;;13.10;;
25263;SDS011;13211;51.796;5.808;2022-07-23T06:16:59;46.13;;;28.13;;
25263;SDS011;13211;51.796;5.808;2022-07-23T06:19:30;17.95;;;8.35;;
25263;SDS011;13211;51.796;5.808;2022-07-23T06:21:59;13.27;;;6.97;;
25263;SDS011;13211;51.796;5.808;2022-07-23T06:24:30;12.98;;;7.40;;
25263;SDS011;13211;51.796;5.808;2022-07-23T06:26:58;11.90;;;7.50;;
25263;SDS011;13211;51.796;5.808;2022-07-23T06:29:27;16.95;;;9.90;;
25263;SDS011;13211;51.796;5.808;2022-07-23T06:31:55;15.63;;;7.38;;
25263;SDS011;13211;51.796;5.808;2022-07-23T06:34:23;14.13;;;6.78;;
25263;SDS011;13211;51.796;5.808;2022-07-23T06:36:54;10.60;;;6.28;;
25263;SDS011;13211;51.796;5.808;2022-07-23T06:39:25;10.13;;;6.25;;
25263;SDS011;13211;51.796;5.808;2022-07-23T06:41:53;13.35;;;6.28;;
25263;SDS011;13211;51.796;5.808;2022-07-23T06:44:38;9.48;;;4.35;;
25263;SDS011;13211;51.796;5.808;2022-07-23T06:47:09;9.88;;;4.65;;
25263;SDS011;13211;51.796;5.808;2022-07-23T06:49:37;25.80;;;14.02;;
25263;SDS011;13211;51.796;5.808;2022-07-23T06:52:04;14.30;;;8.77;;
25263;SDS011;13211;51.796;5.808;2022-07-23T06:54:33;7.10;;;3.85;;
25263;SDS011;13211;51.796;5.808;2022-07-23T06:57:02;8.32;;;3.60;;
25263;SDS011;13211;51.796;5.808;2022-07-23T06:59:30;6.25;;;3.25;;
25263;SDS011;13211;51.796;5.808;2022-07-23T07:01:58;6.53;;;3.00;;
25263;SDS011;13211;51.796;5.808;2022-07-23T07:04:26;6.93;;;2.92;;
25263;SDS011;13211;51.796;5.808;2022-07-23T07:06:54;5.85;;;3.15;;
25263;SDS011;13211;51.796;5.808;2022-07-23T07:09:25;6.05;;;3.50;;
25263;SDS011;13211;51.796;5.808;2022-07-23T07:11:53;13.18;;;7.95;;
25263;SDS011;13211;51.796;5.808;2022-07-23T07:14:21;7.22;;;4.22;;
25263;SDS011;13211;51.796;5.808;2022-07-23T07:16:49;7.60;;;2.88;;
25263;SDS011;13211;51.796;5.808;2022-07-23T07:19:20;5.43;;;3.10;;
25263;SDS011;13211;51.796;5.808;2022-07-23T07:21:48;5.78;;;2.45;;
25263;SDS011;13211;51.796;5.808;2022-07-23T07:24:19;4.10;;;2.40;;
25263;SDS011;13211;51.796;5.808;2022-07-23T07:26:46;6.22;;;2.75;;
25263;SDS011;13211;51.796;5.808;2022-07-23T07:29:15;5.60;;;3.20;;
25263;SDS011;13211;51.796;5.808;2022-07-23T07:31:46;5.20;;;3.10;;
25263;SDS011;13211;51.796;5.808;2022-07-23T07:34:13;7.45;;;2.83;;
25263;SDS011;13211;51.796;5.808;2022-07-23T07:36:43;7.17;;;2.70;;
25263;SDS011;13211;51.796;5.808;2022-07-23T07:39:12;3.83;;;2.30;;
25263;SDS011;13211;51.796;5.808;2022-07-23T07:41:41;8.52;;;2.45;;
25263;SDS011;13211;51.796;5.808;2022-07-23T07:44:12;4.97;;;2.38;;
25263;SDS011;13211;51.796;5.808;2022-07-23T07:46:40;8.70;;;2.90;;
25263;SDS011;13211;51.796;5.808;2022-07-23T07:49:08;6.80;;;2.63;;
25263;SDS011;13211;51.796;5.808;2022-07-23T07:51:42;4.38;;;2.47;;
25263;SDS011;13211;51.796;5.808;2022-07-23T07:54:13;11.20;;;2.85;;
25263;SDS011;13211;51.796;5.808;2022-07-23T07:56:42;4.88;;;1.98;;
25263;SDS011;13211;51.796;5.808;2022-07-23T07:59:15;6.07;;;2.55;;
25263;SDS011;13211;51.796;5.808;2022-07-23T08:01:45;9.25;;;2.85;;
25263;SDS011;13211;51.796;5.808;2022-07-23T08:04:12;3.78;;;1.85;;
25263;SDS011;13211;51.796;5.808;2022-07-23T08:06:41;9.20;;;2.17;;
25263;SDS011;13211;51.796;5.808;2022-07-23T08:09:12;6.05;;;2.40;;
25263;SDS011;13211;51.796;5.808;2022-07-23T08:11:40;8.20;;;2.20;;
25263;SDS011;13211;51.796;5.808;2022-07-23T08:14:08;5.43;;;2.40;;
25263;SDS011;13211;51.796;5.808;2022-07-23T08:16:41;3.35;;;1.90;;
25263;SDS011;13211;51.796;5.808;2022-07-23T08:19:29;6.22;;;3.05;;
25263;SDS011;13211;51.796;5.808;2022-07-23T08:21:57;6.38;;;2.60;;
25263;SDS011;13211;51.796;5.808;2022-07-23T08:24:25;6.40;;;2.10;;
25263;SDS011;13211;51.796;5.808;2022-07-23T08:26:52;6.55;;;2.40;;
25263;SDS011;13211;51.796;5.808;2022-07-23T08:29:20;5.25;;;2.03;;
25263;SDS011;13211;51.796;5.808;2022-07-23T08:31:53;4.90;;;1.85;;
25263;SDS011;13211;51.796;5.808;2022-07-23T08:34:22;8.50;;;2.03;;
25263;SDS011;13211;51.796;5.808;2022-07-23T08:36:51;10.25;;;2.45;;
25263;SDS011;13211;51.796;5.808;2022-07-23T08:39:18;8.45;;;2.35;;
25263;SDS011;13211;51.796;5.808;2022-07-23T08:41:46;6.43;;;2.45;;
25263;SDS011;13211;51.796;5.808;2022-07-23T08:44:15;5.57;;;2.10;;
25263;SDS011;13211;51.796;5.808;2022-07-23T08:46:45;3.67;;;1.97;;
25263;SDS011;13211;51.796;5.808;2022-07-23T08:49:16;7.10;;;2.30;;
25263;SDS011;13211;51.796;5.808;2022-07-23T08:51:47;9.48;;;2.30;;
25263;SDS011;13211;51.796;5.808;2022-07-23T08:54:18;4.82;;;2.17;;
25263;SDS011;13211;51.796;5.808;2022-07-23T08:56:48;5.80;;;2.70;;
25263;SDS011;13211;51.796;5.808;2022-07-23T08:59:16;7.22;;;2.90;;
25263;SDS011;13211;51.796;5.808;2022-07-23T09:01:45;3.78;;;2.40;;
25263;SDS011;13211;51.796;5.808;2022-07-23T09:04:13;7.00;;;2.67;;
25263;SDS011;13211;51.796;5.808;2022-07-23T09:06:42;4.93;;;1.90;;
25263;SDS011;13211;51.796;5.808;2022-07-23T09:09:17;5.10;;;2.35;;
25263;SDS011;13211;51.796;5.808;2022-07-23T09:11:48;3.70;;;1.80;;
25263;SDS011;13211;51.796;5.808;2022-07-23T09:14:47;4.90;;;1.98;;
25263;SDS011;13211;51.796;5.808;2022-07-23T09:17:18;5.32;;;2.05;;
25263;SDS011;13211;51.796;5.808;2022-07-23T09:19:48;4.95;;;2.95;;
25263;SDS011;13211;51.796;5.808;2022-07-23T09:22:25;5.55;;;2.55;;
25263;SDS011;13211;51.796;5.808;2022-07-23T09:25:08;6.95;;;3.15;;
25263;SDS011;13211;51.796;5.808;2022-07-23T09:27:54;9.38;;;2.70;;
25263;SDS011;13211;51.796;5.808;2022-07-23T09:30:26;3.50;;;2.40;;
25263;SDS011;13211;51.796;5.808;2022-07-23T09:33:11;5.32;;;2.70;;
25263;SDS011;13211;51.796;5.808;2022-07-23T09:38:22;5.22;;;2.45;;
25263;SDS011;13211;51.796;5.808;2022-07-23T09:41:09;10.43;;;2.75;;
25263;SDS011;13211;51.796;5.808;2022-07-23T09:43:37;6.18;;;2.78;;
25263;SDS011;13211;51.796;5.808;2022-07-23T09:46:21;5.75;;;2.10;;
25263;SDS011;13211;51.796;5.808;2022-07-23T09:48:53;5.03;;;2.33;;
25263;SDS011;13211;51.796;5.808;2022-07-23T09:51:26;5.30;;;2.90;;
25263;SDS011;13211;51.796;5.808;2022-07-23T09:54:03;5.53;;;2.40;;
25263;SDS011;13211;51.796;5.808;2022-07-23T09:56:31;6.75;;;2.47;;
25263;SDS011;13211;51.796;5.808;2022-07-23T09:59:01;10.32;;;2.90;;
25263;SDS011;13211;51.796;5.808;2022-07-23T10:01:39;6.60;;;2.30;;
25263;SDS011;13211;51.796;5.808;2022-07-23T10:04:06;6.40;;;2.38;;
25263;SDS011;13211;51.796;5.808;2022-07-23T10:06:59;4.10;;;1.90;;
25263;SDS011;13211;51.796;5.808;2022-07-23T10:09:55;5.18;;;2.47;;
25263;SDS011;13211;51.796;5.808;2022-07-23T10:12:43;4.57;;;2.13;;
25263;SDS011;13211;51.796;5.808;2022-07-23T10:15:19;5.30;;;2.10;;
25263;SDS011;13211;51.796;5.808;2022-07-23T10:17:48;4.55;;;1.75;;
25263;SDS011;13211;51.796;5.808;2022-07-23T10:20:15;6.03;;;2.45;;
25263;SDS011;13211;51.796;5.808;2022-07-23T10:22:54;4.65;;;1.80;;
25263;SDS011;13211;51.796;5.808;2022-07-23T10:32:08;5.47;;;1.90;;
25263;SDS011;13211;51.796;5.808;2022-07-23T10:37:47;3.33;;;1.48;;
25263;SDS011;13211;51.796;5.808;2022-07-23T10:40:21;4.53;;;1.40;;
25263;SDS011;13211;51.796;5.808;2022-07-23T10:42:52;2.75;;;1.63;;
25263;SDS011;13211;51.796;5.808;2022-07-23T10:48:17;2.50;;;1.60;;
25263;SDS011;13211;51.796;5.808;2022-07-23T10:51:06;3.22;;;1.75;;
25263;SDS011;13211;51.796;5.808;2022-07-23T10:59:18;3.80;;;1.63;;
25263;SDS011;13211;51.796;5.808;2022-07-23T11:01:49;3.90;;;1.98;;
25263;SDS011;13211;51.796;5.808;2022-07-23T11:04:17;5.97;;;1.95;;
25263;SDS011;13211;51.796;5.808;2022-07-23T11:09:28;6.47;;;2.75;;
25263;SDS011;13211;51.796;5.808;2022-07-23T11:20:19;5.28;;;2.00;;
25263;SDS011;13211;51.796;5.808;2022-07-23T11:22:56;4.00;;;1.73;;
25263;SDS011;13211;51.796;5.808;2022-07-23T11:30:56;4.78;;;1.73;;
25263;SDS011;13211;51.796;5.808;2022-07-23T11:33:45;4.43;;;2.33;;
25263;SDS011;13211;51.796;5.808;2022-07-23T11:36:12;4.95;;;2.10;;
25263;SDS011;13211;51.796;5.808;2022-07-23T11:38:45;4.35;;;1.83;;
25263;SDS011;13211;51.796;5.808;2022-07-23T11:41:18;4.55;;;2.55;;
25263;SDS011;13211;51.796;5.808;2022-07-23T11:43:46;4.35;;;2.53;;
25263;SDS011;13211;51.796;5.808;2022-07-23T11:46:17;5.70;;;2.90;;
25263;SDS011;13211;51.796;5.808;2022-07-23T11:48:45;5.38;;;2.47;;
25263;SDS011;13211;51.796;5.808;2022-07-23T11:51:21;7.03;;;2.20;;
25263;SDS011;13211;51.796;5.808;2022-07-23T11:56:21;4.40;;;1.90;;
25263;SDS011;13211;51.796;5.808;2022-07-23T11:58:54;5.07;;;2.55;;
25263;SDS011;13211;51.796;5.808;2022-07-23T12:01:29;3.55;;;2.28;;
25263;SDS011;13211;51.796;5.808;2022-07-23T12:03:59;3.45;;;1.83;;
25263;SDS011;13211;51.796;5.808;2022-07-23T12:06:28;5.38;;;2.10;;
25263;SDS011;13211;51.796;5.808;2022-07-23T12:08:56;5.10;;;2.10;;
25263;SDS011;13211;51.796;5.808;2022-07-23T12:11:23;3.88;;;1.90;;
25263;SDS011;13211;51.796;5.808;2022-07-23T12:13:57;5.63;;;2.00;;
25263;SDS011;13211;51.796;5.808;2022-07-23T12:16:26;6.80;;;1.83;;
25263;SDS011;13211;51.796;5.808;2022-07-23T12:18:56;3.75;;;1.65;;
25263;SDS011;13211;51.796;5.808;2022-07-23T12:21:24;6.20;;;2.38;;
25263;SDS011;13211;51.796;5.808;2022-07-23T12:23:52;3.50;;;1.98;;
25263;SDS011;13211;51.796;5.808;2022-07-23T12:26:34;4.38;;;2.00;;
25263;SDS011;13211;51.796;5.808;2022-07-23T12:29:03;3.30;;;1.42;;
25263;SDS011;13211;51.796;5.808;2022-07-23T12:31:31;3.08;;;1.50;;
25263;SDS011;13211;51.796;5.808;2022-07-23T12:33:59;3.63;;;1.80;;
25263;SDS011;13211;51.796;5.808;2022-07-23T12:36:38;3.58;;;1.73;;
25263;SDS011;13211;51.796;5.808;2022-07-23T12:39:11;4.97;;;1.90;;
25263;SDS011;13211;51.796;5.808;2022-07-23T12:41:54;4.20;;;1.75;;
25263;SDS011;13211;51.796;5.808;2022-07-23T12:44:28;8.57;;;2.40;;
25263;SDS011;13211;51.796;5.808;2022-07-23T12:46:59;2.08;;;1.63;;
25263;SDS011;13211;51.796;5.808;2022-07-23T12:49:36;5.22;;;1.80;;
25263;SDS011;13211;51.796;5.808;2022-07-23T12:52:14;4.13;;;1.88;;
25263;SDS011;13211;51.796;5.808;2022-07-23T12:54:47;3.25;;;2.20;;
25263;SDS011;13211;51.796;5.808;2022-07-23T12:57:19;5.28;;;1.90;;
25263;SDS011;13211;51.796;5.808;2022-07-23T13:00:19;4.50;;;1.98;;
25263;SDS011;13211;51.796;5.808;2022-07-23T13:02:49;7.20;;;2.50;;
25263;SDS011;13211;51.796;5.808;2022-07-23T13:05:19;6.43;;;2.00;;
25263;SDS011;13211;51.796;5.808;2022-07-23T13:07:47;5.65;;;1.95;;
25263;SDS011;13211;51.796;5.808;2022-07-23T13:10:15;6.20;;;1.80;;
25263;SDS011;13211;51.796;5.808;2022-07-23T13:12:50;2.73;;;1.63;;
25263;SDS011;13211;51.796;5.808;2022-07-23T13:15:20;8.73;;;1.85;;
25263;SDS011;13211;51.796;5.808;2022-07-23T13:17:53;4.68;;;1.80;;
25263;SDS011;13211;51.796;5.808;2022-07-23T13:20:22;4.20;;;1.73;;
25263;SDS011;13211;51.796;5.808;2022-07-23T13:22:50;4.63;;;2.00;;
25263;SDS011;13211;51.796;5.808;2022-07-23T13:25:18;3.65;;;2.30;;
25263;SDS011;13211;51.796;5.808;2022-07-23T13:27:46;4.65;;;2.13;;
25263;SDS011;13211;51.796;5.808;2022-07-23T13:30:14;3.22;;;1.65;;
25263;SDS011;13211;51.796;5.808;2022-07-23T13:32:49;2.83;;;1.38;;
25263;SDS011;13211;51.796;5.808;2022-07-23T13:35:16;2.72;;;1.65;;
25263;SDS011;13211;51.796;5.808;2022-07-23T13:37:49;3.33;;;1.45;;
25263;SDS011;13211;51.796;5.808;2022-07-23T13:40:19;3.97;;;1.85;;
25263;SDS011;13211;51.796;5.808;2022-07-23T13:42:54;4.10;;;1.60;;
25263;SDS011;13211;51.796;5.808;2022-07-23T13:45:22;7.68;;;1.80;;
25263;SDS011;13211;51.796;5.808;2022-07-23T13:48:54;4.40;;;1.60;;
25263;SDS011;13211;51.796;5.808;2022-07-23T13:51:32;2.37;;;1.70;;
25263;SDS011;13211;51.796;5.808;2022-07-23T13:54:00;3.50;;;1.60;;
25263;SDS011;13211;51.796;5.808;2022-07-23T13:56:34;7.22;;;1.60;;
25263;SDS011;13211;51.796;5.808;2022-07-23T13:59:03;3.58;;;1.70;;
25263;SDS011;13211;51.796;5.808;2022-07-23T14:01:32;2.42;;;1.40;;
25263;SDS011;13211;51.796;5.808;2022-07-23T14:04:23;2.70;;;1.58;;
25263;SDS011;13211;51.796;5.808;2022-07-23T14:06:52;5.45;;;1.60;;
25263;SDS011;13211;51.796;5.808;2022-07-23T14:09:23;2.53;;;1.58;;
25263;SDS011;13211;51.796;5.808;2022-07-23T14:11:52;2.50;;;1.50;;
25263;SDS011;13211;51.796;5.808;2022-07-23T14:14:20;3.28;;;1.63;;
25263;SDS011;13211;51.796;5.808;2022-07-23T14:16:48;3.53;;;1.95;;
25263;SDS011;13211;51.796;5.808;2022-07-23T14:19:15;3.42;;;1.70;;
25263;SDS011;13211;51.796;5.808;2022-07-23T14:21:45;3.95;;;1.35;;
25263;SDS011;13211;51.796;5.808;2022-07-23T14:24:17;4.70;;;1.30;;
25263;SDS011;13211;51.796;5.808;2022-07-23T14:26:49;4.10;;;1.60;;
25263;SDS011;13211;51.796;5.808;2022-07-23T14:29:19;4.68;;;1.80;;
25263;SDS011;13211;51.796;5.808;2022-07-23T14:31:49;5.60;;;2.03;;
25263;SDS011;13211;51.796;5.808;2022-07-23T14:34:18;7.53;;;2.00;;
25263;SDS011;13211;51.796;5.808;2022-07-23T14:36:54;4.45;;;1.67;;
25263;SDS011;13211;51.796;5.808;2022-07-23T14:39:22;3.67;;;1.40;;
25263;SDS011;13211;51.796;5.808;2022-07-23T14:41:51;3.72;;;1.50;;
25263;SDS011;13211;51.796;5.808;2022-07-23T14:44:21;4.38;;;1.60;;
25263;SDS011;13211;51.796;5.808;2022-07-23T14:46:49;26.77;;;2.90;;
25263;SDS011;13211;51.796;5.808;2022-07-23T14:49:17;9.10;;;1.70;;
25263;SDS011;13211;51.796;5.808;2022-07-23T14:51:53;6.07;;;1.73;;
25263;SDS011;13211;51.796;5.808;2022-07-23T14:54:22;6.07;;;1.40;;
25263;SDS011;13211;51.796;5.808;2022-07-23T14:56:53;4.55;;;1.30;;
25263;SDS011;13211;51.796;5.808;2022-07-23T14:59:22;2.67;;;1.23;;
25263;SDS011;13211;51.796;5.808;2022-07-23T15:01:52;3.28;;;1.50;;
25263;SDS011;13211;51.796;5.808;2022-07-23T15:04:20;3.60;;;1.63;;
25263;SDS011;13211;51.796;5.808;2022-07-23T15:07:04;5.60;;;1.70;;
25263;SDS011;13211;51.796;5.808;2022-07-23T15:09:32;2.80;;;1.77;;
25263;SDS011;13211;51.796;5.808;2022-07-23T15:12:02;4.65;;;1.45;;
25263;SDS011;13211;51.796;5.808;2022-07-23T15:14:33;3.65;;;1.75;;
25263;SDS011;13211;51.796;5.808;2022-07-23T15:17:01;5.40;;;1.58;;
25263;SDS011;13211;51.796;5.808;2022-07-23T15:19:29;3.97;;;1.90;;
25263;SDS011;13211;51.796;5.808;2022-07-23T15:21:56;5.60;;;1.58;;
25263;SDS011;13211;51.796;5.808;2022-07-23T15:24:27;2.15;;;1.40;;
25263;SDS011;13211;51.796;5.808;2022-07-23T15:26:55;3.63;;;1.42;;
25263;SDS011;13211;51.796;5.808;2022-07-23T15:29:24;2.15;;;1.38;;
25263;SDS011;13211;51.796;5.808;2022-07-23T15:31:52;2.88;;;1.40;;
25263;SDS011;13211;51.796;5.808;2022-07-23T15:34:25;4.50;;;1.80;;
25263;SDS011;13211;51.796;5.808;2022-07-23T15:36:53;3.30;;;1.80;;
25263;SDS011;13211;51.796;5.808;2022-07-23T15:39:20;3.90;;;1.70;;
25263;SDS011;13211;51.796;5.808;2022-07-23T15:41:48;3.78;;;1.83;;
25263;SDS011;13211;51.796;5.808;2022-07-23T15:44:16;3.63;;;1.83;;
25263;SDS011;13211;51.796;5.808;2022-07-23T15:46:55;2.17;;;1.38;;
25263;SDS011;13211;51.796;5.808;2022-07-23T15:49:27;2.90;;;1.55;;
25263;SDS011;13211;51.796;5.808;2022-07-23T15:51:56;6.88;;;1.90;;
25263;SDS011;13211;51.796;5.808;2022-07-23T15:54:24;2.45;;;1.52;;